Time;durP1;ratioP1;P1;durP2;ratioP2;P2;SDS_P1;SDS_P2;PMS_P1;PMS_P2;Temp;Humidity;BMP_temperature;BMP_pressure;BME280_temperature;BME280_humidity;BME280_pressure;Samples;Min_cycle;Max_cycle;Signal;HPM_P1;HPM_P2
2021/01/09 00:02:15;;;;;;;25.88;14.15;;;0.60;50.00;;;;;;4859789;29;20053;-69
2021/01/09 00:04:42;;;;;;;27.63;14.75;;;0.50;50.00;;;;;;4853810;29;20097;-69
2021/01/09 00:07:10;;;;;;;27.30;14.50;;;0.50;50.60;;;;;;4861368;29;20049;-70
2021/01/09 00:09:37;;;;;;;27.30;14.73;;;0.50;50.60;;;;;;4855944;29;20053;-71
2021/01/09 00:12:05;;;;;;;26.42;14.32;;;0.50;50.60;;;;;;4856233;29;20056;-69
2021/01/09 00:14:32;;;;;;;26.92;15.15;;;0.50;50.60;;;;;;4858792;29;20049;-70
2021/01/09 00:16:59;;;;;;;26.70;15.27;;;0.60;50.60;;;;;;4855820;29;20106;-71
2021/01/09 00:19:27;;;;;;;29.83;16.17;;;0.60;51.20;;;;;;4856708;29;20128;-69
2021/01/09 00:21:54;;;;;;;29.15;15.27;;;0.70;50.70;;;;;;4852674;29;20534;-71
2021/01/09 00:24:20;;;;;;;31.77;16.95;;;0.70;50.70;;;;;;4857997;29;20049;-72
2021/01/09 00:26:47;;;;;;;30.85;16.25;;;0.70;50.70;;;;;;4856800;29;20793;-72
2021/01/09 00:29:14;;;;;;;34.40;15.98;;;0.70;49.90;;;;;;4858248;29;20665;-72
2021/01/09 00:31:41;;;;;;;28.45;14.70;;;0.80;49.70;;;;;;4856435;29;20060;-70
2021/01/09 00:34:08;;;;;;;31.95;15.77;;;0.70;48.90;;;;;;4858187;29;20583;-71
2021/01/09 00:36:36;;;;;;;27.98;15.88;;;0.60;49.60;;;;;;4856289;29;20060;-71
2021/01/09 00:39:04;;;;;;;27.60;14.35;;;0.70;50.70;;;;;;4858774;29;20057;-70
2021/01/09 00:41:32;;;;;;;28.33;13.60;;;0.60;49.10;;;;;;4856176;29;20117;-69
2021/01/09 00:43:59;;;;;;;27.25;15.25;;;0.70;48.90;;;;;;4854618;29;20049;-71
2021/01/09 00:46:26;;;;;;;27.42;14.80;;;0.70;48.70;;;;;;4855309;29;20072;-71
2021/01/09 00:48:54;;;;;;;31.92;15.23;;;0.70;49.40;;;;;;4861357;29;20496;-70
2021/01/09 00:51:21;;;;;;;30.30;15.93;;;0.70;49.30;;;;;;4855796;29;20136;-69
2021/01/09 00:53:48;;;;;;;27.85;15.65;;;0.70;49.40;;;;;;4857386;29;20049;-72
2021/01/09 00:56:16;;;;;;;26.75;15.90;;;0.60;49.20;;;;;;4857213;29;20102;-72
2021/01/09 00:58:44;;;;;;;27.67;15.98;;;0.70;50.60;;;;;;4856335;29;20047;-70
2021/01/09 01:01:11;;;;;;;32.88;17.15;;;0.70;49.60;;;;;;4858107;29;20454;-71
2021/01/09 01:03:39;;;;;;;32.70;16.85;;;0.70;49.90;;;;;;4857899;29;20165;-71
2021/01/09 01:06:06;;;;;;;29.92;16.45;;;0.70;50.10;;;;;;4857697;29;20049;-68
2021/01/09 01:08:33;;;;;;;27.33;16.85;;;0.60;49.90;;;;;;4856694;29;20089;-71
2021/01/09 01:11:02;;;;;;;34.25;17.13;;;0.70;50.70;;;;;;4861165;29;20598;-71
2021/01/09 01:13:29;;;;;;;30.00;16.75;;;0.70;50.80;;;;;;4853497;29;20921;-71
2021/01/09 01:15:59;;;;;;;28.52;16.50;;;0.80;50.10;;;;;;4864100;29;20556;-69
2021/01/09 01:18:26;;;;;;;29.92;16.40;;;0.80;49.20;;;;;;4862868;29;20528;-71
2021/01/09 01:20:53;;;;;;;28.55;15.90;;;0.80;49.60;;;;;;4858673;29;20423;-70
2021/01/09 01:23:20;;;;;;;28.45;15.73;;;0.80;48.50;;;;;;4860579;29;20054;-71
2021/01/09 01:25:46;;;;;;;30.38;16.27;;;0.80;49.70;;;;;;4860402;29;20068;-68
2021/01/09 01:28:14;;;;;;;31.60;16.70;;;0.80;49.90;;;;;;4858204;29;20069;-71
2021/01/09 01:30:41;;;;;;;33.03;17.23;;;0.80;49.60;;;;;;4858868;29;20049;-70
2021/01/09 01:33:08;;;;;;;33.63;18.13;;;0.80;49.70;;;;;;4859651;29;20612;-70
2021/01/09 01:35:35;;;;;;;32.22;17.42;;;0.80;49.30;;;;;;4861892;29;20067;-70
2021/01/09 01:38:02;;;;;;;33.03;17.42;;;0.80;49.80;;;;;;4861141;29;20163;-72
2021/01/09 01:40:29;;;;;;;29.55;16.48;;;0.70;49.10;;;;;;4859805;29;20060;-71
2021/01/09 01:42:56;;;;;;;36.20;17.95;;;0.70;49.70;;;;;;4858393;29;20158;-71
2021/01/09 01:45:24;;;;;;;28.92;15.88;;;0.70;50.70;;;;;;4856989;29;20675;-70
2021/01/09 01:47:51;;;;;;;30.52;17.08;;;0.70;50.70;;;;;;4861716;29;20061;-68
2021/01/09 01:50:18;;;;;;;32.45;17.55;;;0.70;50.70;;;;;;4858743;29;20057;-68
2021/01/09 01:52:45;;;;;;;32.75;16.67;;;0.60;51.40;;;;;;4857678;29;20141;-67
2021/01/09 01:55:13;;;;;;;28.27;15.30;;;0.70;51.90;;;;;;4861085;29;20085;-67
2021/01/09 01:57:40;;;;;;;29.38;15.85;;;0.70;52.20;;;;;;4861392;29;20071;-68
2021/01/09 02:00:07;;;;;;;29.15;16.17;;;0.60;51.20;;;;;;4861443;29;20057;-68
2021/01/09 02:02:36;;;;;;;31.48;17.15;;;0.70;52.00;;;;;;4858155;29;20081;-73
2021/01/09 02:05:05;;;;;;;30.08;17.00;;;0.70;52.20;;;;;;4860486;29;20152;-73
2021/01/09 02:07:39;;;;;;;33.03;16.52;;;0.70;53.10;;;;;;4859884;29;20064;-72
2021/01/09 02:10:08;;;;;;;28.75;15.85;;;0.70;51.40;;;;;;4858023;29;20053;-73
2021/01/09 02:12:41;;;;;;;32.45;16.20;;;0.70;50.90;;;;;;4857387;29;20053;-73
2021/01/09 02:15:10;;;;;;;33.08;16.95;;;0.60;50.90;;;;;;4857882;29;20060;-73
2021/01/09 02:17:39;;;;;;;31.73;17.27;;;0.70;51.60;;;;;;4857321;29;20179;-75
2021/01/09 02:20:08;;;;;;;32.58;16.45;;;0.70;52.50;;;;;;4861615;29;20144;-73
2021/01/09 02:22:42;;;;;;;31.42;16.85;;;0.70;51.70;;;;;;4856521;29;20061;-73
2021/01/09 02:25:10;;;;;;;29.83;16.83;;;0.70;51.50;;;;;;4856654;29;20578;-70
2021/01/09 02:27:38;;;;;;;34.17;16.38;;;0.60;52.00;;;;;;4857490;29;20059;-72
2021/01/09 02:30:11;;;;;;;32.97;17.05;;;0.60;52.40;;;;;;4860777;29;20068;-74
2021/01/09 02:32:44;;;;;;;30.70;15.70;;;0.70;53.20;;;;;;4860600;29;20434;-70
2021/01/09 02:35:15;;;;;;;31.83;16.75;;;0.60;52.90;;;;;;4857876;29;20430;-72
2021/01/09 02:37:43;;;;;;;28.63;16.10;;;0.60;52.60;;;;;;4859719;29;20045;-72
2021/01/09 02:40:14;;;;;;;33.05;16.45;;;0.50;53.20;;;;;;4857631;29;20079;-72
2021/01/09 02:42:41;;;;;;;33.20;17.23;;;0.60;53.40;;;;;;4859374;29;20396;-71
2021/01/09 02:45:09;;;;;;;31.10;17.80;;;0.60;53.70;;;;;;4858788;29;20132;-73
2021/01/09 02:47:36;;;;;;;31.00;17.70;;;0.70;53.70;;;;;;4858942;29;20070;-72
2021/01/09 02:50:04;;;;;;;31.98;15.82;;;0.60;53.50;;;;;;4859239;29;20053;-72
2021/01/09 02:52:31;;;;;;;29.08;16.08;;;0.50;53.30;;;;;;4860244;29;20500;-73
2021/01/09 02:54:58;;;;;;;27.80;14.65;;;0.50;54.00;;;;;;4858925;29;20063;-74
2021/01/09 02:57:26;;;;;;;32.78;16.75;;;0.50;54.30;;;;;;4860142;29;20063;-74
2021/01/09 02:59:53;;;;;;;27.42;16.05;;;0.50;53.60;;;;;;4860978;29;20053;-73
2021/01/09 03:02:19;;;;;;;32.15;15.57;;;0.50;54.20;;;;;;4858762;29;20171;-73
2021/01/09 03:04:47;;;;;;;28.83;15.23;;;0.50;54.50;;;;;;4858889;29;20581;-71
2021/01/09 03:07:13;;;;;;;31.58;16.48;;;0.50;54.50;;;;;;4858084;29;20507;-72
2021/01/09 03:09:40;;;;;;;30.98;17.10;;;0.40;55.60;;;;;;4861102;29;20427;-73
2021/01/09 03:12:09;;;;;;;28.80;15.88;;;0.50;55.70;;;;;;4857294;29;20068;-75
2021/01/09 03:14:36;;;;;;;31.98;16.73;;;0.50;55.60;;;;;;4859682;29;20157;-74
2021/01/09 03:17:03;;;;;;;32.45;17.20;;;0.50;55.50;;;;;;4855771;29;20060;-73
2021/01/09 03:19:30;;;;;;;30.38;16.40;;;0.50;55.60;;;;;;4858011;29;20141;-72
2021/01/09 03:21:58;;;;;;;32.03;16.83;;;0.50;56.00;;;;;;4853794;29;20156;-73
2021/01/09 03:24:25;;;;;;;30.42;16.55;;;0.50;55.50;;;;;;4859834;29;20049;-73
2021/01/09 03:26:51;;;;;;;30.83;16.77;;;0.50;55.30;;;;;;4858570;29;20059;-74
2021/01/09 03:29:19;;;;;;;34.08;17.23;;;0.50;55.60;;;;;;4856502;29;20128;-73
2021/01/09 03:31:46;;;;;;;32.40;16.52;;;0.50;55.50;;;;;;4855739;29;20057;-73
2021/01/09 03:34:13;;;;;;;34.40;16.90;;;0.50;55.70;;;;;;4859921;29;20053;-74
2021/01/09 03:36:40;;;;;;;31.40;17.65;;;0.50;56.40;;;;;;4859128;29;20046;-75
2021/01/09 03:39:07;;;;;;;29.90;17.45;;;0.60;56.10;;;;;;4858183;29;20050;-70
2021/01/09 03:41:34;;;;;;;35.58;18.33;;;0.60;56.20;;;;;;4858625;29;21740;-76
2021/01/09 03:44:01;;;;;;;35.22;17.67;;;0.50;55.80;;;;;;4858448;29;20050;-75
2021/01/09 03:46:30;;;;;;;33.63;17.73;;;0.50;55.70;;;;;;4855791;29;20064;-74
2021/01/09 03:48:57;;;;;;;32.35;17.48;;;0.50;56.40;;;;;;4857108;29;20050;-72
2021/01/09 03:51:23;;;;;;;33.05;18.05;;;0.50;56.50;;;;;;4856480;29;20060;-73
2021/01/09 03:53:50;;;;;;;33.67;18.52;;;0.50;56.80;;;;;;4854529;29;20777;-72
2021/01/09 03:56:17;;;;;;;36.35;18.13;;;0.50;56.60;;;;;;4857541;29;20653;-72
2021/01/09 03:58:44;;;;;;;31.42;16.00;;;0.40;56.40;;;;;;4859493;29;20063;-72
2021/01/09 04:01:11;;;;;;;35.28;18.27;;;0.40;57.40;;;;;;4854624;29;20405;-72
2021/01/09 04:03:38;;;;;;;34.40;17.38;;;0.50;57.60;;;;;;4856500;29;20054;-75
2021/01/09 04:06:05;;;;;;;33.75;18.05;;;0.40;57.60;;;;;;4859727;29;20045;-72
2021/01/09 04:08:32;;;;;;;36.65;18.10;;;0.50;58.30;;;;;;4860124;29;20041;-71
2021/01/09 04:10:59;;;;;;;33.08;16.83;;;0.40;57.90;;;;;;4856202;29;20113;-73
2021/01/09 04:13:26;;;;;;;35.53;19.05;;;0.50;58.30;;;;;;4857501;29;20109;-73
2021/01/09 04:15:53;;;;;;;35.80;19.35;;;0.50;58.30;;;;;;4858314;29;20049;-74
2021/01/09 04:18:20;;;;;;;37.03;18.23;;;0.60;58.20;;;;;;4857475;29;20041;-73
2021/01/09 04:20:47;;;;;;;36.75;18.35;;;0.60;57.50;;;;;;4857721;29;20060;-72
2021/01/09 04:23:14;;;;;;;35.38;18.70;;;0.60;57.70;;;;;;4858383;29;20061;-73
2021/01/09 04:25:41;;;;;;;34.10;17.92;;;0.60;57.60;;;;;;4856543;29;20055;-72
2021/01/09 04:28:08;;;;;;;32.70;19.02;;;0.50;57.30;;;;;;4859706;29;20071;-70
2021/01/09 04:30:35;;;;;;;35.05;18.30;;;0.50;57.50;;;;;;4864928;29;20448;-75
2021/01/09 04:33:02;;;;;;;34.60;18.65;;;0.50;57.30;;;;;;4856862;29;20050;-70
2021/01/09 04:35:28;;;;;;;33.60;18.80;;;0.60;58.40;;;;;;4860512;29;20419;-72
2021/01/09 04:37:56;;;;;;;33.83;16.60;;;0.60;57.30;;;;;;4862608;29;20057;-72
2021/01/09 04:40:23;;;;;;;33.72;19.15;;;0.50;56.60;;;;;;4858381;29;20841;-71
2021/01/09 04:42:50;;;;;;;35.72;18.73;;;0.50;58.00;;;;;;4859691;29;20053;-72
2021/01/09 04:45:17;;;;;;;33.70;19.15;;;0.50;58.30;;;;;;4857873;29;20049;-70
2021/01/09 04:47:47;;;;;;;34.05;19.35;;;0.60;57.60;;;;;;4861955;29;20499;-70
2021/01/09 04:50:15;;;;;;;36.63;19.83;;;0.50;57.80;;;;;;4865947;29;20140;-71
2021/01/09 04:52:43;;;;;;;36.58;18.25;;;0.60;58.40;;;;;;4861570;29;20066;-71
2021/01/09 04:55:12;;;;;;;38.88;19.10;;;0.60;58.40;;;;;;4862329;29;20052;-72
2021/01/09 04:57:39;;;;;;;37.50;19.63;;;0.60;58.40;;;;;;4860015;29;20431;-71
2021/01/09 05:00:07;;;;;;;36.28;18.95;;;0.60;57.80;;;;;;4864090;29;20053;-73
2021/01/09 05:02:36;;;;;;;36.42;18.63;;;0.60;57.80;;;;;;4858556;29;20080;-73
2021/01/09 05:05:06;;;;;;;32.38;17.98;;;0.50;58.10;;;;;;4861114;29;20056;-73
2021/01/09 05:07:33;;;;;;;34.70;17.90;;;0.50;58.40;;;;;;4857784;29;20049;-74
2021/01/09 05:10:03;;;;;;;38.25;18.15;;;0.60;58.40;;;;;;4861523;29;20053;-72
2021/01/09 05:12:33;;;;;;;34.45;18.48;;;0.60;58.20;;;;;;4860182;29;20059;-74
2021/01/09 05:15:00;;;;;;;34.20;18.65;;;0.60;58.40;;;;;;4861260;29;20044;-73
2021/01/09 05:17:28;;;;;;;35.97;18.48;;;0.50;58.30;;;;;;4858641;29;20058;-73
2021/01/09 05:19:55;;;;;;;33.95;17.02;;;0.50;58.30;;;;;;4857408;29;20156;-74
2021/01/09 05:22:23;;;;;;;34.90;17.33;;;0.50;58.30;;;;;;4858438;29;20057;-74
2021/01/09 05:24:50;;;;;;;32.85;17.27;;;0.50;58.30;;;;;;4859981;29;20080;-74
2021/01/09 05:27:18;;;;;;;34.85;18.42;;;0.50;59.20;;;;;;4859321;29;20137;-74
2021/01/09 05:29:51;;;;;;;35.97;18.45;;;0.50;59.00;;;;;;4859368;29;20052;-74
2021/01/09 05:32:18;;;;;;;36.38;17.85;;;0.50;59.30;;;;;;4859683;29;20059;-73
2021/01/09 05:34:49;;;;;;;35.88;18.55;;;0.50;59.70;;;;;;4857832;29;20045;-69
2021/01/09 05:37:19;;;;;;;36.83;18.67;;;0.50;59.20;;;;;;4859946;29;20053;-74
2021/01/09 05:39:56;;;;;;;38.75;19.10;;;0.50;59.60;;;;;;4859241;29;20053;-74
2021/01/09 05:42:25;;;;;;;39.90;18.63;;;0.50;59.30;;;;;;4860626;29;21403;-72
2021/01/09 05:44:57;;;;;;;36.08;19.48;;;0.40;58.70;;;;;;4858799;29;20057;-74
2021/01/09 05:47:26;;;;;;;36.20;18.90;;;0.50;60.10;;;;;;4858341;29;20053;-72
2021/01/09 05:49:54;;;;;;;40.05;20.25;;;0.50;60.40;;;;;;4860579;29;20049;-73
2021/01/09 05:52:23;;;;;;;45.03;19.67;;;0.50;59.90;;;;;;4858085;29;20068;-71
2021/01/09 05:54:54;;;;;;;38.58;19.20;;;0.50;60.50;;;;;;4859169;29;20053;-73
2021/01/09 05:57:26;;;;;;;39.28;20.67;;;0.50;59.60;;;;;;4858424;29;20064;-73
2021/01/09 05:59:54;;;;;;;37.25;19.48;;;0.50;60.00;;;;;;4858905;29;20063;-73
2021/01/09 06:02:24;;;;;;;38.85;19.27;;;0.50;59.60;;;;;;4859227;29;20049;-73
2021/01/09 06:04:56;;;;;;;35.20;18.92;;;0.50;60.40;;;;;;4859849;29;20653;-75
2021/01/09 06:07:26;;;;;;;39.90;21.08;;;0.50;60.90;;;;;;4859583;29;20144;-73
2021/01/09 06:09:58;;;;;;;40.67;18.92;;;0.50;60.90;;;;;;4858828;29;20444;-72
2021/01/09 06:12:27;;;;;;;36.88;18.63;;;0.50;60.80;;;;;;4858962;29;20404;-74
2021/01/09 06:14:54;;;;;;;37.88;19.88;;;0.50;61.90;;;;;;4859642;29;20650;-74
2021/01/09 06:17:23;;;;;;;35.85;18.70;;;0.50;61.80;;;;;;4857196;29;20600;-71
2021/01/09 06:19:50;;;;;;;40.38;19.65;;;0.50;62.10;;;;;;4861782;29;20053;-71
2021/01/09 06:22:17;;;;;;;39.47;19.60;;;0.50;62.00;;;;;;4857793;29;20053;-73
2021/01/09 06:24:44;;;;;;;36.25;19.55;;;0.50;61.50;;;;;;4855753;29;20056;-73
2021/01/09 06:27:22;;;;;;;38.92;19.05;;;0.50;62.20;;;;;;4857282;29;20182;-70
2021/01/09 06:29:49;;;;;;;39.70;20.65;;;0.50;62.10;;;;;;4860424;29;20057;-72
2021/01/09 06:32:20;;;;;;;38.22;20.50;;;0.60;62.30;;;;;;4859656;29;20156;-72
2021/01/09 06:34:50;;;;;;;37.72;19.58;;;0.60;63.00;;;;;;4855298;29;20057;-71
2021/01/09 06:37:21;;;;;;;40.95;20.40;;;0.60;62.60;;;;;;4858068;29;20054;-72
2021/01/09 06:39:49;;;;;;;44.03;20.95;;;0.70;62.50;;;;;;4856290;29;20065;-73
2021/01/09 06:42:18;;;;;;;44.30;22.05;;;0.60;62.50;;;;;;4858157;29;20053;-72
2021/01/09 06:44:50;;;;;;;45.42;21.83;;;0.60;62.70;;;;;;4857992;29;20080;-72
2021/01/09 06:47:25;;;;;;;46.88;22.30;;;0.70;62.60;;;;;;4856586;29;20057;-73
2021/01/09 06:49:53;;;;;;;48.42;23.60;;;0.60;63.00;;;;;;4854956;29;20064;-73
2021/01/09 06:52:56;;;;;;;52.20;24.05;;;0.60;62.40;;;;;;4856685;29;20057;-72
2021/01/09 06:56:02;;;;;;;51.28;24.33;;;0.60;62.40;;;;;;4857829;29;20058;-72
2021/01/09 06:58:33;;;;;;;52.30;23.65;;;0.60;62.90;;;;;;4859769;29;20045;-70
2021/01/09 07:01:21;;;;;;;49.13;22.60;;;0.60;62.90;;;;;;4858166;29;20045;-69
2021/01/09 07:03:48;;;;;;;42.83;21.52;;;0.60;63.70;;;;;;4859230;29;20093;-69
2021/01/09 07:06:37;;;;;;;43.17;22.30;;;0.50;63.70;;;;;;4860403;29;20045;-70
2021/01/09 07:09:05;;;;;;;46.72;23.10;;;0.50;63.80;;;;;;4861519;29;20144;-70
2021/01/09 07:11:34;;;;;;;45.33;22.15;;;0.40;64.80;;;;;;4856603;29;20063;-74
2021/01/09 07:14:14;;;;;;;45.00;21.55;;;0.50;66.30;;;;;;4861401;29;20064;-69
2021/01/09 07:16:41;;;;;;;44.88;23.90;;;0.50;66.00;;;;;;4857304;29;20053;-69
2021/01/09 07:19:11;;;;;;;50.03;24.67;;;0.50;65.80;;;;;;4860772;29;20045;-73
2021/01/09 07:21:39;;;;;;;40.65;19.65;;;0.50;66.20;;;;;;4858863;29;20064;-72
2021/01/09 07:24:09;;;;;;;42.95;21.45;;;0.50;66.10;;;;;;4865161;29;20050;-75
2021/01/09 07:26:39;;;;;;;47.40;22.23;;;0.50;66.20;;;;;;4860579;29;20057;-71
2021/01/09 07:29:06;;;;;;;43.25;21.98;;;0.60;66.40;;;;;;4867376;29;20128;-74
2021/01/09 07:31:41;;;;;;;50.33;23.60;;;0.60;65.70;;;;;;4855074;29;20067;-70
2021/01/09 07:34:12;;;;;;;42.95;22.02;;;0.60;65.60;;;;;;4863136;29;20776;-70
2021/01/09 07:36:40;;;;;;;45.13;21.85;;;0.50;64.70;;;;;;4862978;29;20140;-70
2021/01/09 07:39:07;;;;;;;49.28;23.45;;;0.60;65.20;;;;;;4859138;29;20135;-74
2021/01/09 07:41:36;;;;;;;46.83;23.92;;;0.60;64.90;;;;;;4859157;29;20061;-71
2021/01/09 07:44:13;;;;;;;49.22;23.75;;;0.60;65.00;;;;;;4858848;29;20136;-70
2021/01/09 07:46:50;;;;;;;43.90;22.05;;;0.70;65.20;;;;;;4864823;29;20049;-75
2021/01/09 07:49:29;;;;;;;40.85;21.38;;;0.60;63.80;;;;;;4857766;29;20050;-70
2021/01/09 07:52:01;;;;;;;42.88;21.17;;;0.50;64.20;;;;;;4857017;29;20492;-69
2021/01/09 07:54:30;;;;;;;37.95;20.85;;;0.50;63.60;;;;;;4858865;29;20061;-71
2021/01/09 07:56:57;;;;;;;45.17;22.35;;;0.50;64.90;;;;;;4857383;29;20064;-71
2021/01/09 07:59:24;;;;;;;47.13;21.63;;;0.60;64.10;;;;;;4859760;29;20045;-73
2021/01/09 08:01:51;;;;;;;48.28;22.85;;;0.50;64.00;;;;;;4858753;29;20606;-72
2021/01/09 08:04:18;;;;;;;47.97;23.30;;;0.50;63.40;;;;;;4856956;29;20057;-70
2021/01/09 08:06:45;;;;;;;54.38;25.60;;;0.50;65.00;;;;;;4856543;29;20136;-73
2021/01/09 08:09:12;;;;;;;53.40;25.02;;;0.60;65.10;;;;;;4862619;29;20049;-70
2021/01/09 08:11:43;;;;;;;58.85;27.13;;;0.70;64.50;;;;;;4857908;29;20503;-73
2021/01/09 08:14:10;;;;;;;50.88;24.80;;;0.70;64.20;;;;;;4858213;29;20056;-73
2021/01/09 08:16:37;;;;;;;49.03;23.58;;;0.70;63.80;;;;;;4854925;29;20064;-73
2021/01/09 08:19:14;;;;;;;48.78;25.05;;;0.60;64.30;;;;;;4858182;29;20073;-71
2021/01/09 08:21:42;;;;;;;48.75;24.38;;;0.70;63.80;;;;;;4857064;29;20053;-72
2021/01/09 08:24:09;;;;;;;43.67;22.38;;;0.70;63.10;;;;;;4859163;29;20046;-74
2021/01/09 08:26:37;;;;;;;45.08;21.27;;;0.60;61.70;;;;;;4856679;29;20081;-72
2021/01/09 08:29:06;;;;;;;34.88;16.17;;;0.60;60.70;;;;;;4860786;29;20085;-74
2021/01/09 08:31:36;;;;;;;35.92;18.92;;;0.60;59.60;;;;;;4855776;29;20067;-72
2021/01/09 08:34:03;;;;;;;33.42;18.10;;;0.60;58.40;;;;;;4855976;29;20051;-71
2021/01/09 08:36:30;;;;;;;34.90;16.05;;;0.60;55.50;;;;;;4856554;29;20972;-72
2021/01/09 08:38:59;;;;;;;33.38;17.75;;;0.60;55.40;;;;;;4857340;29;20129;-72
2021/01/09 08:41:36;;;;;;;40.25;18.55;;;0.60;54.40;;;;;;4852045;29;20056;-70
2021/01/09 08:44:08;;;;;;;42.35;20.75;;;0.70;53.90;;;;;;4854216;29;20057;-73
2021/01/09 08:46:35;;;;;;;37.58;19.88;;;0.70;54.20;;;;;;4856027;29;20527;-73
2021/01/09 08:49:02;;;;;;;34.28;17.33;;;0.80;55.20;;;;;;4856321;29;20515;-71
2021/01/09 08:51:30;;;;;;;34.70;17.98;;;0.80;52.50;;;;;;4855573;29;20052;-72
2021/01/09 08:54:00;;;;;;;37.20;19.50;;;0.80;52.30;;;;;;4857268;29;20519;-72
2021/01/09 08:56:28;;;;;;;42.50;20.55;;;0.90;51.90;;;;;;4855011;29;20059;-72
2021/01/09 08:59:01;;;;;;;38.35;19.13;;;0.90;53.10;;;;;;4854194;29;20182;-72
2021/01/09 09:01:32;;;;;;;36.33;19.05;;;0.90;51.20;;;;;;4853226;29;20526;-74
2021/01/09 09:04:03;;;;;;;38.22;19.52;;;0.90;52.30;;;;;;4855904;29;20110;-71
2021/01/09 09:06:35;;;;;;;35.88;19.13;;;1.00;51.10;;;;;;4855711;29;20520;-73
2021/01/09 09:09:04;;;;;;;34.97;18.48;;;1.00;50.60;;;;;;4857899;29;20052;-71
2021/01/09 09:11:31;;;;;;;40.50;19.85;;;1.00;51.40;;;;;;4855417;29;20420;-72
2021/01/09 09:14:06;;;;;;;35.53;17.70;;;1.10;51.40;;;;;;4856357;29;20061;-71
2021/01/09 09:16:34;;;;;;;33.33;17.38;;;1.10;49.70;;;;;;4856132;29;20208;-73
2021/01/09 09:19:10;;;;;;;31.30;15.98;;;0.90;47.30;;;;;;4858526;29;20047;-74
2021/01/09 09:21:41;;;;;;;38.67;18.42;;;0.80;47.90;;;;;;4853558;29;20075;-70
2021/01/09 09:24:08;;;;;;;33.58;17.10;;;1.10;49.20;;;;;;4856996;29;20064;-72
2021/01/09 09:26:35;;;;;;;32.13;15.65;;;1.10;49.40;;;;;;4853913;29;20424;-74
2021/01/09 09:29:02;;;;;;;33.15;16.85;;;1.10;46.70;;;;;;4856281;29;20511;-73
2021/01/09 09:31:32;;;;;;;30.08;15.73;;;1.20;45.90;;;;;;4856014;29;20118;-73
2021/01/09 09:34:09;;;;;;;33.40;16.30;;;1.30;44.70;;;;;;4855668;29;20137;-76
2021/01/09 09:36:40;;;;;;;35.30;17.65;;;1.30;43.30;;;;;;4858479;29;20124;-72
2021/01/09 09:39:11;;;;;;;31.15;17.45;;;1.30;43.90;;;;;;4863610;29;20097;-76
2021/01/09 09:41:52;;;;;;;34.92;17.00;;;1.20;45.40;;;;;;4861532;29;20073;-71
2021/01/09 09:44:20;;;;;;;36.38;17.67;;;1.40;42.60;;;;;;4860747;29;20053;-71
2021/01/09 09:46:49;;;;;;;37.08;18.63;;;1.40;43.30;;;;;;4862109;29;20064;-70
2021/01/09 09:49:16;;;;;;;36.28;18.00;;;1.50;42.40;;;;;;4861283;29;20045;-70
2021/01/09 09:51:43;;;;;;;38.17;18.65;;;1.40;42.20;;;;;;4863052;29;20057;-72
2021/01/09 09:54:10;;;;;;;35.65;17.33;;;1.40;44.10;;;;;;4864907;29;20144;-71
2021/01/09 09:56:39;;;;;;;33.47;17.90;;;1.50;43.40;;;;;;4862311;29;20061;-71
2021/01/09 09:59:07;;;;;;;34.20;17.55;;;1.60;43.50;;;;;;4865293;29;20132;-77
2021/01/09 10:01:35;;;;;;;38.22;18.33;;;1.80;41.60;;;;;;4857983;29;20063;-75
2021/01/09 10:04:06;;;;;;;32.92;16.27;;;1.90;41.10;;;;;;4860274;29;20053;-71
2021/01/09 10:06:37;;;;;;;27.30;14.13;;;1.90;37.60;;;;;;4861502;29;20403;-71
2021/01/09 10:09:15;;;;;;;27.90;14.40;;;1.80;37.50;;;;;;4859661;29;20064;-70
2021/01/09 10:11:42;;;;;;;23.35;12.13;;;1.70;35.30;;;;;;4863805;29;20061;-75
2021/01/09 10:14:25;;;;;;;28.15;13.02;;;1.50;35.20;;;;;;4863335;29;20057;-73
2021/01/09 10:16:51;;;;;;;29.33;15.82;;;1.50;35.20;;;;;;4855039;29;20548;-74
2021/01/09 10:19:19;;;;;;;26.30;13.15;;;1.40;36.10;;;;;;4864665;29;20961;-71
2021/01/09 10:21:46;;;;;;;24.20;13.05;;;1.30;36.30;;;;;;4863703;29;20219;-70
2021/01/09 10:24:13;;;;;;;28.77;13.80;;;1.30;35.00;;;;;;4856693;29;20090;-72
2021/01/09 10:26:40;;;;;;;25.10;12.50;;;1.40;33.70;;;;;;4862686;29;20076;-72
2021/01/09 10:29:07;;;;;;;20.63;11.43;;;1.50;34.00;;;;;;4860460;29;20742;-75
2021/01/09 10:31:36;;;;;;;17.83;8.90;;;1.30;30.70;;;;;;4863102;29;20063;-70
2021/01/09 10:34:04;;;;;;;17.85;9.25;;;1.60;25.20;;;;;;4860556;29;20072;-71
2021/01/09 10:36:33;;;;;;;14.90;8.73;;;1.70;24.20;;;;;;4864630;29;20144;-72
2021/01/09 10:39:02;;;;;;;18.58;9.73;;;1.90;23.30;;;;;;4861822;29;20060;-71
2021/01/09 10:41:29;;;;;;;18.63;10.02;;;1.90;22.50;;;;;;4861140;29;20057;-71
2021/01/09 10:44:15;;;;;;;14.68;7.97;;;1.80;23.40;;;;;;4860069;29;20060;-71
2021/01/09 10:46:42;;;;;;;10.70;6.50;;;1.60;20.10;;;;;;4858674;29;20436;-72
2021/01/09 10:49:09;;;;;;;13.35;7.30;;;1.60;19.00;;;;;;4862673;29;21457;-74
2021/01/09 10:51:38;;;;;;;11.60;6.72;;;1.50;20.80;;;;;;4863596;29;20088;-69
2021/01/09 10:54:05;;;;;;;14.68;8.80;;;1.60;20.30;;;;;;4861543;29;20057;-70
2021/01/09 10:56:31;;;;;;;14.85;7.90;;;1.50;20.80;;;;;;4864014;29;20079;-73
2021/01/09 10:58:58;;;;;;;13.50;7.32;;;1.50;20.80;;;;;;4860281;29;20064;-71
2021/01/09 11:01:25;;;;;;;15.63;8.75;;;1.60;19.90;;;;;;4859015;29;20658;-70
2021/01/09 11:03:52;;;;;;;13.68;7.00;;;1.70;20.70;;;;;;4862227;29;20056;-70
2021/01/09 11:06:23;;;;;;;10.75;6.70;;;1.80;18.90;;;;;;4862919;29;20157;-71
2021/01/09 11:08:51;;;;;;;14.38;8.10;;;1.80;19.60;;;;;;4869068;29;20049;-72
2021/01/09 11:11:19;;;;;;;12.48;7.25;;;1.70;18.50;;;;;;4858262;29;20054;-71
2021/01/09 11:13:46;;;;;;;13.00;7.38;;;1.70;18.30;;;;;;4857969;29;20054;-72
2021/01/09 11:16:18;;;;;;;14.93;7.75;;;1.80;17.30;;;;;;4868526;29;20057;-70
2021/01/09 11:18:45;;;;;;;13.75;7.57;;;1.70;16.40;;;;;;4863305;29;20059;-73
2021/01/09 11:21:12;;;;;;;15.77;8.38;;;1.80;15.90;;;;;;4860907;29;20053;-72
2021/01/09 11:23:42;;;;;;;14.27;8.13;;;1.90;16.80;;;;;;4856647;29;20061;-71
2021/01/09 11:26:10;;;;;;;15.65;8.30;;;2.00;15.90;;;;;;4862226;29;20058;-71
2021/01/09 11:28:37;;;;;;;16.75;9.02;;;2.00;17.50;;;;;;4859056;29;20080;-71
2021/01/09 11:31:03;;;;;;;16.95;9.52;;;2.00;16.70;;;;;;4861703;29;20048;-71
2021/01/09 11:33:30;;;;;;;17.02;9.88;;;1.80;16.20;;;;;;4857334;29;20068;-73
2021/01/09 11:35:57;;;;;;;17.08;9.25;;;1.90;17.90;;;;;;4855568;29;20054;-71
2021/01/09 11:38:24;;;;;;;16.33;8.70;;;2.10;17.20;;;;;;4862493;29;20049;-73
2021/01/09 11:40:51;;;;;;;17.23;9.15;;;2.30;15.60;;;;;;4856196;29;20053;-76
2021/01/09 11:43:19;;;;;;;12.73;7.45;;;2.30;15.30;;;;;;4856756;29;20058;-71
2021/01/09 11:45:45;;;;;;;12.05;6.78;;;2.50;13.90;;;;;;4859825;29;20061;-72
2021/01/09 11:48:12;;;;;;;14.57;8.40;;;2.60;12.20;;;;;;4864532;29;20068;-71
2021/01/09 11:50:43;;;;;;;14.45;7.65;;;2.50;11.00;;;;;;4861642;29;20056;-71
2021/01/09 11:53:18;;;;;;;12.77;7.50;;;2.60;10.90;;;;;;4857968;29;20160;-71
2021/01/09 11:55:45;;;;;;;14.57;7.50;;;2.60;9.90;;;;;;4861116;29;20053;-72
2021/01/09 11:58:12;;;;;;;12.77;7.43;;;2.50;9.70;;;;;;4859535;29;20072;-71
2021/01/09 12:00:39;;;;;;;12.95;7.75;;;2.40;10.50;;;;;;4861727;29;20068;-69
2021/01/09 12:03:06;;;;;;;15.38;8.32;;;2.40;12.00;;;;;;4852626;29;20059;-72
2021/01/09 12:05:33;;;;;;;17.50;8.70;;;2.50;12.60;;;;;;4859258;29;20053;-71
2021/01/09 12:08:02;;;;;;;13.10;7.55;;;2.50;12.70;;;;;;4854830;29;20208;-70
2021/01/09 12:10:29;;;;;;;15.38;8.35;;;2.50;12.30;;;;;;4859234;29;20052;-71
2021/01/09 12:13:03;;;;;;;13.93;7.60;;;2.50;13.60;;;;;;4855412;29;20057;-75
2021/01/09 12:15:30;;;;;;;14.52;7.90;;;2.60;11.90;;;;;;4861599;29;20496;-73
2021/01/09 12:17:58;;;;;;;14.68;8.55;;;2.50;12.70;;;;;;4859682;29;20049;-72
2021/01/09 12:20:25;;;;;;;13.70;7.88;;;2.40;14.00;;;;;;4860925;29;20227;-73
2021/01/09 12:22:52;;;;;;;16.25;8.30;;;2.30;13.60;;;;;;4859465;29;20094;-73
2021/01/09 12:25:20;;;;;;;14.98;7.68;;;2.20;12.00;;;;;;4859639;29;20051;-71
2021/01/09 12:27:46;;;;;;;14.57;7.88;;;2.20;14.30;;;;;;4860581;29;20542;-74
2021/01/09 12:30:16;;;;;;;14.50;7.63;;;2.00;14.20;;;;;;4858508;29;20083;-70
2021/01/09 12:32:42;;;;;;;17.38;8.07;;;2.00;15.90;;;;;;4859585;29;20092;-70
2021/01/09 12:35:11;;;;;;;12.57;7.18;;;2.00;16.80;;;;;;4857778;29;20060;-70
2021/01/09 12:37:38;;;;;;;12.35;7.30;;;2.20;13.90;;;;;;4860707;29;20080;-71
2021/01/09 12:40:06;;;;;;;15.68;8.57;;;2.30;14.40;;;;;;4858097;29;20053;-71
2021/01/09 12:42:33;;;;;;;13.90;7.75;;;2.50;14.30;;;;;;4855032;29;20070;-71
2021/01/09 12:45:00;;;;;;;14.43;8.48;;;2.50;13.10;;;;;;4854793;29;20070;-70
2021/01/09 12:47:27;;;;;;;12.95;7.88;;;2.50;14.20;;;;;;4857077;29;20535;-72